sensor_id;sensor_type;location;lat;lon;timestamp;temperature;humidity
17988;DHT22;9119;50.932;5.342;2022-10-16T00:01:38;15.70;99.90
17988;DHT22;9119;50.932;5.342;2022-10-16T00:04:04;15.80;99.90
17988;DHT22;9119;50.932;5.342;2022-10-16T00:06:30;15.70;99.90
17988;DHT22;9119;50.932;5.342;2022-10-16T00:08:56;15.60;99.90
17988;DHT22;9119;50.932;5.342;2022-10-16T00:11:30;15.70;99.90
17988;DHT22;9119;50.932;5.342;2022-10-16T00:14:00;15.80;99.90
17988;DHT22;9119;50.932;5.342;2022-10-16T00:16:27;15.80;99.90
17988;DHT22;9119;50.932;5.342;2022-10-16T00:18:53;15.60;99.90
17988;DHT22;9119;50.932;5.342;2022-10-16T00:21:21;15.50;99.90
17988;DHT22;9119;50.932;5.342;2022-10-16T00:23:51;15.90;99.90
17988;DHT22;9119;50.932;5.342;2022-10-16T00:26:18;15.80;99.90
17988;DHT22;9119;50.932;5.342;2022-10-16T00:28:48;15.80;99.90
17988;DHT22;9119;50.932;5.342;2022-10-16T00:31:15;15.60;99.90
17988;DHT22;9119;50.932;5.342;2022-10-16T00:33:41;15.50;99.90
17988;DHT22;9119;50.932;5.342;2022-10-16T00:36:09;15.60;99.90
17988;DHT22;9119;50.932;5.342;2022-10-16T00:38:35;15.50;99.90
17988;DHT22;9119;50.932;5.342;2022-10-16T00:41:00;15.80;99.90
17988;DHT22;9119;50.932;5.342;2022-10-16T00:46:12;15.80;99.90
17988;DHT22;9119;50.932;5.342;2022-10-16T00:48:39;15.90;99.90
17988;DHT22;9119;50.932;5.342;2022-10-16T00:51:06;15.90;99.90
17988;DHT22;9119;50.932;5.342;2022-10-16T00:53:33;15.70;99.90
17988;DHT22;9119;50.932;5.342;2022-10-16T00:55:59;15.70;99.90
17988;DHT22;9119;50.932;5.342;2022-10-16T00:58:25;15.70;99.90
17988;DHT22;9119;50.932;5.342;2022-10-16T01:00:50;15.60;99.90
17988;DHT22;9119;50.932;5.342;2022-10-16T01:03:30;15.70;99.90
17988;DHT22;9119;50.932;5.342;2022-10-16T01:06:07;15.70;99.90
17988;DHT22;9119;50.932;5.342;2022-10-16T01:08:45;15.60;99.90
17988;DHT22;9119;50.932;5.342;2022-10-16T01:11:30;15.80;99.90
17988;DHT22;9119;50.932;5.342;2022-10-16T01:14:06;15.70;99.90
17988;DHT22;9119;50.932;5.342;2022-10-16T01:16:43;15.90;99.90
17988;DHT22;9119;50.932;5.342;2022-10-16T01:19:19;15.50;99.90
17988;DHT22;9119;50.932;5.342;2022-10-16T01:21:47;15.30;99.90
17988;DHT22;9119;50.932;5.342;2022-10-16T01:32:38;15.00;99.90
17988;DHT22;9119;50.932;5.342;2022-10-16T01:35:11;14.90;99.90
17988;DHT22;9119;50.932;5.342;2022-10-16T01:37:41;14.80;99.90
17988;DHT22;9119;50.932;5.342;2022-10-16T01:40:13;14.80;99.90
17988;DHT22;9119;50.932;5.342;2022-10-16T01:42:43;14.90;99.90
17988;DHT22;9119;50.932;5.342;2022-10-16T01:45:13;15.00;99.90
17988;DHT22;9119;50.932;5.342;2022-10-16T01:47:41;14.80;99.90
17988;DHT22;9119;50.932;5.342;2022-10-16T01:50:09;14.60;99.90
17988;DHT22;9119;50.932;5.342;2022-10-16T01:52:39;14.80;99.90
17988;DHT22;9119;50.932;5.342;2022-10-16T01:55:11;14.80;99.90
17988;DHT22;9119;50.932;5.342;2022-10-16T01:57:41;14.70;99.90
17988;DHT22;9119;50.932;5.342;2022-10-16T02:00:11;14.70;99.90
17988;DHT22;9119;50.932;5.342;2022-10-16T02:02:38;14.70;99.90
17988;DHT22;9119;50.932;5.342;2022-10-16T02:05:12;14.70;99.90
17988;DHT22;9119;50.932;5.342;2022-10-16T02:07:43;14.80;99.90
17988;DHT22;9119;50.932;5.342;2022-10-16T02:10:09;14.90;99.90
17988;DHT22;9119;50.932;5.342;2022-10-16T02:12:38;15.00;99.90
17988;DHT22;9119;50.932;5.342;2022-10-16T02:15:06;14.80;99.90
17988;DHT22;9119;50.932;5.342;2022-10-16T02:17:32;14.80;99.90
17988;DHT22;9119;50.932;5.342;2022-10-16T02:19:58;14.70;99.90
17988;DHT22;9119;50.932;5.342;2022-10-16T02:22:37;14.60;99.90
17988;DHT22;9119;50.932;5.342;2022-10-16T02:30:21;14.50;99.90
17988;DHT22;9119;50.932;5.342;2022-10-16T02:32:48;14.50;99.90
17988;DHT22;9119;50.932;5.342;2022-10-16T02:35:19;14.50;99.90
17988;DHT22;9119;50.932;5.342;2022-10-16T02:37:47;14.60;99.90
17988;DHT22;9119;50.932;5.342;2022-10-16T02:40:14;14.60;99.90
17988;DHT22;9119;50.932;5.342;2022-10-16T02:42:41;14.70;99.90
17988;DHT22;9119;50.932;5.342;2022-10-16T02:45:09;14.70;99.90
17988;DHT22;9119;50.932;5.342;2022-10-16T02:47:35;14.60;99.90
17988;DHT22;9119;50.932;5.342;2022-10-16T02:50:01;14.60;99.90
17988;DHT22;9119;50.932;5.342;2022-10-16T02:52:27;14.60;99.90
17988;DHT22;9119;50.932;5.342;2022-10-16T02:54:55;14.50;99.90
17988;DHT22;9119;50.932;5.342;2022-10-16T02:57:21;14.40;99.90
17988;DHT22;9119;50.932;5.342;2022-10-16T02:59:46;14.40;99.90
17988;DHT22;9119;50.932;5.342;2022-10-16T03:02:12;14.50;99.90
17988;DHT22;9119;50.932;5.342;2022-10-16T03:04:38;14.40;99.90
17988;DHT22;9119;50.932;5.342;2022-10-16T03:07:04;14.30;99.90
17988;DHT22;9119;50.932;5.342;2022-10-16T03:09:29;14.30;99.90
17988;DHT22;9119;50.932;5.342;2022-10-16T03:11:55;14.40;99.90
17988;DHT22;9119;50.932;5.342;2022-10-16T03:14:21;14.30;99.90
17988;DHT22;9119;50.932;5.342;2022-10-16T03:16:46;14.30;99.90
17988;DHT22;9119;50.932;5.342;2022-10-16T03:19:12;14.30;99.90
17988;DHT22;9119;50.932;5.342;2022-10-16T03:21:38;14.40;99.90
17988;DHT22;9119;50.932;5.342;2022-10-16T03:24:04;14.30;99.90
17988;DHT22;9119;50.932;5.342;2022-10-16T03:26:29;14.30;99.90
17988;DHT22;9119;50.932;5.342;2022-10-16T03:28:55;14.30;99.90
17988;DHT22;9119;50.932;5.342;2022-10-16T03:31:21;14.40;99.90
17988;DHT22;9119;50.932;5.342;2022-10-16T03:33:47;14.50;99.90
17988;DHT22;9119;50.932;5.342;2022-10-16T03:36:12;14.40;99.90
17988;DHT22;9119;50.932;5.342;2022-10-16T03:38:38;14.40;99.90
17988;DHT22;9119;50.932;5.342;2022-10-16T03:41:07;14.40;99.90
17988;DHT22;9119;50.932;5.342;2022-10-16T03:43:33;14.40;99.90
17988;DHT22;9119;50.932;5.342;2022-10-16T03:45:58;14.40;99.90
17988;DHT22;9119;50.932;5.342;2022-10-16T03:48:24;14.40;99.90
17988;DHT22;9119;50.932;5.342;2022-10-16T03:50:50;14.40;99.90
17988;DHT22;9119;50.932;5.342;2022-10-16T03:53:17;14.40;99.90
17988;DHT22;9119;50.932;5.342;2022-10-16T03:55:42;14.30;99.90
17988;DHT22;9119;50.932;5.342;2022-10-16T03:58:08;14.30;99.90
17988;DHT22;9119;50.932;5.342;2022-10-16T04:00:34;14.30;99.90
17988;DHT22;9119;50.932;5.342;2022-10-16T04:03:00;14.30;99.90
17988;DHT22;9119;50.932;5.342;2022-10-16T04:05:26;14.20;99.90
17988;DHT22;9119;50.932;5.342;2022-10-16T04:07:52;14.30;99.90
17988;DHT22;9119;50.932;5.342;2022-10-16T04:10:18;14.20;99.90
17988;DHT22;9119;50.932;5.342;2022-10-16T04:12:44;14.10;99.90
17988;DHT22;9119;50.932;5.342;2022-10-16T04:15:10;14.10;99.90
17988;DHT22;9119;50.932;5.342;2022-10-16T04:17:35;14.10;99.90
17988;DHT22;9119;50.932;5.342;2022-10-16T04:20:01;14.20;99.90
17988;DHT22;9119;50.932;5.342;2022-10-16T04:22:26;14.20;99.90
17988;DHT22;9119;50.932;5.342;2022-10-16T04:24:52;14.20;99.90
17988;DHT22;9119;50.932;5.342;2022-10-16T04:27:18;14.10;99.90
17988;DHT22;9119;50.932;5.342;2022-10-16T04:29:43;14.20;99.90
17988;DHT22;9119;50.932;5.342;2022-10-16T04:32:09;14.10;99.90
17988;DHT22;9119;50.932;5.342;2022-10-16T04:34:35;14.10;99.90
17988;DHT22;9119;50.932;5.342;2022-10-16T04:37:00;14.10;99.90
17988;DHT22;9119;50.932;5.342;2022-10-16T04:39:26;14.10;99.90
17988;DHT22;9119;50.932;5.342;2022-10-16T04:41:51;14.10;99.90
17988;DHT22;9119;50.932;5.342;2022-10-16T04:44:17;14.00;99.90
17988;DHT22;9119;50.932;5.342;2022-10-16T04:46:42;14.00;99.90
17988;DHT22;9119;50.932;5.342;2022-10-16T04:49:09;14.00;99.90
17988;DHT22;9119;50.932;5.342;2022-10-16T04:51:37;14.00;99.90
17988;DHT22;9119;50.932;5.342;2022-10-16T04:54:03;14.00;99.90
17988;DHT22;9119;50.932;5.342;2022-10-16T04:56:29;14.20;99.90
17988;DHT22;9119;50.932;5.342;2022-10-16T04:58:54;14.00;99.90
17988;DHT22;9119;50.932;5.342;2022-10-16T05:01:20;14.00;99.90
17988;DHT22;9119;50.932;5.342;2022-10-16T05:03:45;13.90;99.90
17988;DHT22;9119;50.932;5.342;2022-10-16T05:06:11;14.00;99.90
17988;DHT22;9119;50.932;5.342;2022-10-16T05:08:37;14.00;99.90
17988;DHT22;9119;50.932;5.342;2022-10-16T05:11:02;14.00;99.90
17988;DHT22;9119;50.932;5.342;2022-10-16T05:13:28;14.00;99.90
17988;DHT22;9119;50.932;5.342;2022-10-16T05:15:54;14.10;99.90
17988;DHT22;9119;50.932;5.342;2022-10-16T05:18:19;14.20;99.90
17988;DHT22;9119;50.932;5.342;2022-10-16T05:20:45;14.10;99.90
17988;DHT22;9119;50.932;5.342;2022-10-16T05:23:11;14.00;99.90
17988;DHT22;9119;50.932;5.342;2022-10-16T05:25:37;14.00;99.90
17988;DHT22;9119;50.932;5.342;2022-10-16T05:28:02;14.00;99.90
17988;DHT22;9119;50.932;5.342;2022-10-16T05:30:28;14.00;99.90
17988;DHT22;9119;50.932;5.342;2022-10-16T05:32:54;14.00;99.90
17988;DHT22;9119;50.932;5.342;2022-10-16T05:35:19;14.00;99.90
17988;DHT22;9119;50.932;5.342;2022-10-16T05:37:46;14.00;99.90
17988;DHT22;9119;50.932;5.342;2022-10-16T05:40:12;14.10;99.90
17988;DHT22;9119;50.932;5.342;2022-10-16T05:42:39;14.10;99.90
17988;DHT22;9119;50.932;5.342;2022-10-16T05:45:06;14.20;99.90
17988;DHT22;9119;50.932;5.342;2022-10-16T05:47:32;14.10;99.90
17988;DHT22;9119;50.932;5.342;2022-10-16T05:49:57;14.10;99.90
17988;DHT22;9119;50.932;5.342;2022-10-16T05:52:23;14.10;99.90
17988;DHT22;9119;50.932;5.342;2022-10-16T05:54:49;14.10;99.90
17988;DHT22;9119;50.932;5.342;2022-10-16T05:57:15;14.10;99.90
17988;DHT22;9119;50.932;5.342;2022-10-16T05:59:40;14.10;99.90
17988;DHT22;9119;50.932;5.342;2022-10-16T06:02:11;14.10;99.90
17988;DHT22;9119;50.932;5.342;2022-10-16T06:04:37;14.00;99.90
17988;DHT22;9119;50.932;5.342;2022-10-16T06:07:03;14.00;99.90
17988;DHT22;9119;50.932;5.342;2022-10-16T06:09:28;14.00;99.90
17988;DHT22;9119;50.932;5.342;2022-10-16T06:11:54;14.00;99.90
17988;DHT22;9119;50.932;5.342;2022-10-16T06:14:20;13.90;99.90
17988;DHT22;9119;50.932;5.342;2022-10-16T06:16:48;13.90;99.90
17988;DHT22;9119;50.932;5.342;2022-10-16T06:19:14;13.90;99.90
17988;DHT22;9119;50.932;5.342;2022-10-16T06:21:41;13.90;99.90
17988;DHT22;9119;50.932;5.342;2022-10-16T06:24:07;13.90;99.90
17988;DHT22;9119;50.932;5.342;2022-10-16T06:26:33;13.90;99.90
17988;DHT22;9119;50.932;5.342;2022-10-16T06:28:59;13.90;99.90
17988;DHT22;9119;50.932;5.342;2022-10-16T06:31:26;14.00;99.90
17988;DHT22;9119;50.932;5.342;2022-10-16T06:33:53;14.00;99.90
17988;DHT22;9119;50.932;5.342;2022-10-16T06:36:20;14.00;99.90
17988;DHT22;9119;50.932;5.342;2022-10-16T06:38:46;14.00;99.90
17988;DHT22;9119;50.932;5.342;2022-10-16T06:41:15;14.00;99.90
17988;DHT22;9119;50.932;5.342;2022-10-16T06:43:41;14.00;99.90
17988;DHT22;9119;50.932;5.342;2022-10-16T06:46:09;14.00;99.90
17988;DHT22;9119;50.932;5.342;2022-10-16T06:48:35;14.00;99.90
17988;DHT22;9119;50.932;5.342;2022-10-16T06:51:02;13.80;99.90
17988;DHT22;9119;50.932;5.342;2022-10-16T06:53:30;13.90;99.90
17988;DHT22;9119;50.932;5.342;2022-10-16T06:55:56;13.90;99.90
17988;DHT22;9119;50.932;5.342;2022-10-16T06:58:22;13.90;99.90
17988;DHT22;9119;50.932;5.342;2022-10-16T07:00:48;13.80;99.90
17988;DHT22;9119;50.932;5.342;2022-10-16T07:03:14;13.80;99.90
17988;DHT22;9119;50.932;5.342;2022-10-16T07:05:43;13.80;99.90
17988;DHT22;9119;50.932;5.342;2022-10-16T07:08:09;13.80;99.90
17988;DHT22;9119;50.932;5.342;2022-10-16T07:10:35;13.90;99.90
17988;DHT22;9119;50.932;5.342;2022-10-16T07:13:00;13.80;99.90
17988;DHT22;9119;50.932;5.342;2022-10-16T07:15:27;13.90;99.90
17988;DHT22;9119;50.932;5.342;2022-10-16T07:17:53;13.90;99.90
17988;DHT22;9119;50.932;5.342;2022-10-16T07:20:19;14.00;99.90
17988;DHT22;9119;50.932;5.342;2022-10-16T07:22:45;14.10;99.90
17988;DHT22;9119;50.932;5.342;2022-10-16T07:25:15;14.00;99.90
17988;DHT22;9119;50.932;5.342;2022-10-16T07:27:40;14.10;99.90
17988;DHT22;9119;50.932;5.342;2022-10-16T07:30:06;14.20;99.90
17988;DHT22;9119;50.932;5.342;2022-10-16T07:32:32;14.20;99.90
17988;DHT22;9119;50.932;5.342;2022-10-16T07:34:57;14.30;99.90
17988;DHT22;9119;50.932;5.342;2022-10-16T07:37:23;14.30;99.90
17988;DHT22;9119;50.932;5.342;2022-10-16T07:39:49;14.40;99.90
17988;DHT22;9119;50.932;5.342;2022-10-16T07:42:15;14.50;99.90
17988;DHT22;9119;50.932;5.342;2022-10-16T07:44:40;14.60;99.90
17988;DHT22;9119;50.932;5.342;2022-10-16T07:47:08;14.60;99.90
17988;DHT22;9119;50.932;5.342;2022-10-16T07:49:33;14.70;99.90
17988;DHT22;9119;50.932;5.342;2022-10-16T07:51:59;14.80;99.90
17988;DHT22;9119;50.932;5.342;2022-10-16T07:54:24;14.80;99.90
17988;DHT22;9119;50.932;5.342;2022-10-16T07:56:50;14.90;99.90
17988;DHT22;9119;50.932;5.342;2022-10-16T07:59:15;14.90;99.90
17988;DHT22;9119;50.932;5.342;2022-10-16T08:01:41;15.00;99.90
17988;DHT22;9119;50.932;5.342;2022-10-16T08:04:10;15.10;99.90
17988;DHT22;9119;50.932;5.342;2022-10-16T08:06:37;15.30;99.90
17988;DHT22;9119;50.932;5.342;2022-10-16T08:09:03;15.50;99.90
17988;DHT22;9119;50.932;5.342;2022-10-16T08:11:29;15.80;99.90
17988;DHT22;9119;50.932;5.342;2022-10-16T08:13:55;16.10;99.90
17988;DHT22;9119;50.932;5.342;2022-10-16T08:16:21;16.30;99.90
17988;DHT22;9119;50.932;5.342;2022-10-16T08:18:46;16.40;99.90
17988;DHT22;9119;50.932;5.342;2022-10-16T08:21:15;16.60;99.90
17988;DHT22;9119;50.932;5.342;2022-10-16T08:23:40;16.80;99.90
17988;DHT22;9119;50.932;5.342;2022-10-16T08:26:08;16.80;99.90
17988;DHT22;9119;50.932;5.342;2022-10-16T08:28:34;17.00;99.90
17988;DHT22;9119;50.932;5.342;2022-10-16T08:31:11;17.10;99.90
17988;DHT22;9119;50.932;5.342;2022-10-16T08:33:38;17.30;99.90
17988;DHT22;9119;50.932;5.342;2022-10-16T08:36:06;17.70;99.90
17988;DHT22;9119;50.932;5.342;2022-10-16T08:38:32;17.90;99.90
17988;DHT22;9119;50.932;5.342;2022-10-16T08:46:49;18.70;99.90
17988;DHT22;9119;50.932;5.342;2022-10-16T08:49:16;18.90;99.90
17988;DHT22;9119;50.932;5.342;2022-10-16T08:51:43;19.40;99.90
17988;DHT22;9119;50.932;5.342;2022-10-16T08:54:34;19.80;99.90
17988;DHT22;9119;50.932;5.342;2022-10-16T08:57:15;20.10;99.90
17988;DHT22;9119;50.932;5.342;2022-10-16T08:59:42;18.90;99.90
17988;DHT22;9119;50.932;5.342;2022-10-16T09:13:17;17.00;99.90
17988;DHT22;9119;50.932;5.342;2022-10-16T09:16:19;16.90;99.90
17988;DHT22;9119;50.932;5.342;2022-10-16T09:18:54;16.80;99.90
17988;DHT22;9119;50.932;5.342;2022-10-16T09:21:30;16.80;99.90
17988;DHT22;9119;50.932;5.342;2022-10-16T09:24:21;16.80;99.90
17988;DHT22;9119;50.932;5.342;2022-10-16T09:26:51;16.70;99.90
17988;DHT22;9119;50.932;5.342;2022-10-16T09:29:21;16.80;99.90
17988;DHT22;9119;50.932;5.342;2022-10-16T09:31:48;16.80;99.90
17988;DHT22;9119;50.932;5.342;2022-10-16T09:34:37;16.90;99.90
17988;DHT22;9119;50.932;5.342;2022-10-16T09:37:14;17.00;99.90
17988;DHT22;9119;50.932;5.342;2022-10-16T09:39:47;17.00;99.90
17988;DHT22;9119;50.932;5.342;2022-10-16T09:42:17;17.00;99.90
17988;DHT22;9119;50.932;5.342;2022-10-16T09:44:48;17.00;99.90
17988;DHT22;9119;50.932;5.342;2022-10-16T09:47:18;17.00;99.90
17988;DHT22;9119;50.932;5.342;2022-10-16T09:50:00;16.90;99.90
17988;DHT22;9119;50.932;5.342;2022-10-16T09:52:28;17.00;99.90
17988;DHT22;9119;50.932;5.342;2022-10-16T09:55:14;17.10;99.90
17988;DHT22;9119;50.932;5.342;2022-10-16T09:57:51;17.00;99.90
17988;DHT22;9119;50.932;5.342;2022-10-16T10:00:17;17.10;99.90
17988;DHT22;9119;50.932;5.342;2022-10-16T10:02:44;17.20;99.90
17988;DHT22;9119;50.932;5.342;2022-10-16T10:05:21;17.40;99.90
17988;DHT22;9119;50.932;5.342;2022-10-16T10:07:54;17.20;99.90
17988;DHT22;9119;50.932;5.342;2022-10-16T10:10:23;17.20;99.90
17988;DHT22;9119;50.932;5.342;2022-10-16T10:12:49;17.20;99.90
17988;DHT22;9119;50.932;5.342;2022-10-16T10:15:15;17.20;99.90
17988;DHT22;9119;50.932;5.342;2022-10-16T10:17:49;17.20;99.90
17988;DHT22;9119;50.932;5.342;2022-10-16T10:20:29;17.30;99.90
17988;DHT22;9119;50.932;5.342;2022-10-16T10:23:01;17.40;99.90
17988;DHT22;9119;50.932;5.342;2022-10-16T10:25:48;17.40;99.90
17988;DHT22;9119;50.932;5.342;2022-10-16T10:31:17;17.60;99.90
17988;DHT22;9119;50.932;5.342;2022-10-16T10:36:37;17.70;99.90
17988;DHT22;9119;50.932;5.342;2022-10-16T10:50:20;17.60;99.90
17988;DHT22;9119;50.932;5.342;2022-10-16T10:58:45;17.70;99.90
17988;DHT22;9119;50.932;5.342;2022-10-16T11:07:16;17.70;99.90
17988;DHT22;9119;50.932;5.342;2022-10-16T11:10:12;17.70;99.90
17988;DHT22;9119;50.932;5.342;2022-10-16T11:12:42;17.80;99.90
17988;DHT22;9119;50.932;5.342;2022-10-16T11:15:19;17.80;99.90
17988;DHT22;9119;50.932;5.342;2022-10-16T11:17:55;17.80;99.90
17988;DHT22;9119;50.932;5.342;2022-10-16T11:20:34;17.90;99.90
17988;DHT22;9119;50.932;5.342;2022-10-16T11:23:18;18.00;99.90
17988;DHT22;9119;50.932;5.342;2022-10-16T11:25:48;18.00;99.90
17988;DHT22;9119;50.932;5.342;2022-10-16T11:28:18;18.10;99.90
17988;DHT22;9119;50.932;5.342;2022-10-16T11:33:46;18.20;99.90
17988;DHT22;9119;50.932;5.342;2022-10-16T11:36:42;18.30;99.90
17988;DHT22;9119;50.932;5.342;2022-10-16T11:39:27;18.50;99.90
17988;DHT22;9119;50.932;5.342;2022-10-16T11:41:54;18.60;99.90
17988;DHT22;9119;50.932;5.342;2022-10-16T11:47:31;18.80;99.90
17988;DHT22;9119;50.932;5.342;2022-10-16T11:50:09;18.80;99.90
17988;DHT22;9119;50.932;5.342;2022-10-16T11:55:34;18.70;99.90
17988;DHT22;9119;50.932;5.342;2022-10-16T11:58:27;18.90;99.90
17988;DHT22;9119;50.932;5.342;2022-10-16T12:03:35;18.80;99.90
17988;DHT22;9119;50.932;5.342;2022-10-16T12:08:50;18.70;99.90
17988;DHT22;9119;50.932;5.342;2022-10-16T12:14:03;18.90;99.90
17988;DHT22;9119;50.932;5.342;2022-10-16T12:16:29;18.90;99.90
17988;DHT22;9119;50.932;5.342;2022-10-16T12:19:28;19.00;99.90
17988;DHT22;9119;50.932;5.342;2022-10-16T12:21:57;19.10;99.90
17988;DHT22;9119;50.932;5.342;2022-10-16T12:24:42;19.00;99.90
17988;DHT22;9119;50.932;5.342;2022-10-16T12:27:28;18.90;99.90
17988;DHT22;9119;50.932;5.342;2022-10-16T12:29:57;18.90;99.90
17988;DHT22;9119;50.932;5.342;2022-10-16T12:34:51;18.90;99.90
17988;DHT22;9119;50.932;5.342;2022-10-16T12:37:26;19.10;99.90
17988;DHT22;9119;50.932;5.342;2022-10-16T12:39:54;19.20;99.90
17988;DHT22;9119;50.932;5.342;2022-10-16T12:44:52;19.40;99.90
17988;DHT22;9119;50.932;5.342;2022-10-16T12:49:56;19.50;99.90
17988;DHT22;9119;50.932;5.342;2022-10-16T12:54:59;19.40;99.90
17988;DHT22;9119;50.932;5.342;2022-10-16T13:00:25;19.40;99.90
17988;DHT22;9119;50.932;5.342;2022-10-16T13:16:29;19.20;99.90
17988;DHT22;9119;50.932;5.342;2022-10-16T13:22:02;19.20;99.90
17988;DHT22;9119;50.932;5.342;2022-10-16T13:27:41;19.20;99.90
17988;DHT22;9119;50.932;5.342;2022-10-16T13:30:21;19.10;99.90
17988;DHT22;9119;50.932;5.342;2022-10-16T13:32:52;19.10;99.90
17988;DHT22;9119;50.932;5.342;2022-10-16T13:35:24;19.10;99.90
17988;DHT22;9119;50.932;5.342;2022-10-16T13:38:14;19.10;99.90
17988;DHT22;9119;50.932;5.342;2022-10-16T13:41:02;19.10;99.90
17988;DHT22;9119;50.932;5.342;2022-10-16T13:43:36;19.10;99.90
17988;DHT22;9119;50.932;5.342;2022-10-16T13:46:11;19.20;99.90
17988;DHT22;9119;50.932;5.342;2022-10-16T13:48:37;19.20;99.90
17988;DHT22;9119;50.932;5.342;2022-10-16T13:51:06;19.20;99.90
17988;DHT22;9119;50.932;5.342;2022-10-16T13:53:34;19.20;99.90
17988;DHT22;9119;50.932;5.342;2022-10-16T13:56:03;19.30;99.90
17988;DHT22;9119;50.932;5.342;2022-10-16T13:58:32;19.30;99.90
17988;DHT22;9119;50.932;5.342;2022-10-16T14:01:02;19.30;99.90
17988;DHT22;9119;50.932;5.342;2022-10-16T14:03:30;19.20;99.90
17988;DHT22;9119;50.932;5.342;2022-10-16T14:05:59;19.20;99.90
17988;DHT22;9119;50.932;5.342;2022-10-16T14:08:27;19.20;99.90
17988;DHT22;9119;50.932;5.342;2022-10-16T14:10:58;19.20;99.90
17988;DHT22;9119;50.932;5.342;2022-10-16T14:15:56;19.50;99.90
17988;DHT22;9119;50.932;5.342;2022-10-16T14:18:25;19.50;99.90
17988;DHT22;9119;50.932;5.342;2022-10-16T14:20:52;19.40;99.90
17988;DHT22;9119;50.932;5.342;2022-10-16T14:23:34;19.30;99.90
17988;DHT22;9119;50.932;5.342;2022-10-16T14:26:27;19.30;99.90
17988;DHT22;9119;50.932;5.342;2022-10-16T14:29:17;19.30;99.90
17988;DHT22;9119;50.932;5.342;2022-10-16T14:31:58;19.30;99.90
17988;DHT22;9119;50.932;5.342;2022-10-16T14:34:30;19.20;99.90
17988;DHT22;9119;50.932;5.342;2022-10-16T14:37:41;19.20;99.90
17988;DHT22;9119;50.932;5.342;2022-10-16T14:39:51;19.10;99.90
17988;DHT22;9119;50.932;5.342;2022-10-16T14:42:18;19.10;99.90
17988;DHT22;9119;50.932;5.342;2022-10-16T14:44:46;19.10;99.90
17988;DHT22;9119;50.932;5.342;2022-10-16T14:47:14;19.10;99.90
17988;DHT22;9119;50.932;5.342;2022-10-16T14:49:47;19.10;99.90
17988;DHT22;9119;50.932;5.342;2022-10-16T14:52:13;19.10;99.90
17988;DHT22;9119;50.932;5.342;2022-10-16T14:54:40;19.10;99.90
17988;DHT22;9119;50.932;5.342;2022-10-16T14:57:26;19.10;99.90
17988;DHT22;9119;50.932;5.342;2022-10-16T14:59:52;19.10;99.90
17988;DHT22;9119;50.932;5.342;2022-10-16T15:04:48;19.10;99.90
17988;DHT22;9119;50.932;5.342;2022-10-16T15:07:13;19.10;99.90
17988;DHT22;9119;50.932;5.342;2022-10-16T15:09:39;19.10;99.90
17988;DHT22;9119;50.932;5.342;2022-10-16T15:12:05;19.10;99.90
17988;DHT22;9119;50.932;5.342;2022-10-16T15:14:30;19.10;99.90
17988;DHT22;9119;50.932;5.342;2022-10-16T15:16:56;19.10;99.90
17988;DHT22;9119;50.932;5.342;2022-10-16T15:19:22;19.10;99.90
17988;DHT22;9119;50.932;5.342;2022-10-16T15:21:47;19.10;99.90
17988;DHT22;9119;50.932;5.342;2022-10-16T15:24:15;19.10;99.90
17988;DHT22;9119;50.932;5.342;2022-10-16T15:26:40;19.00;99.90
17988;DHT22;9119;50.932;5.342;2022-10-16T15:29:06;19.00;99.90
17988;DHT22;9119;50.932;5.342;2022-10-16T15:31:32;18.90;99.90
17988;DHT22;9119;50.932;5.342;2022-10-16T15:33:58;18.80;99.90
17988;DHT22;9119;50.932;5.342;2022-10-16T15:36:33;18.80;99.90
17988;DHT22;9119;50.932;5.342;2022-10-16T15:39:02;18.80;99.90
17988;DHT22;9119;50.932;5.342;2022-10-16T15:41:31;18.70;99.90
17988;DHT22;9119;50.932;5.342;2022-10-16T15:43:57;18.70;99.90
17988;DHT22;9119;50.932;5.342;2022-10-16T15:46:24;18.70;99.90
17988;DHT22;9119;50.932;5.342;2022-10-16T15:48:51;18.70;99.90
17988;DHT22;9119;50.932;5.342;2022-10-16T15:51:21;18.60;99.90
17988;DHT22;9119;50.932;5.342;2022-10-16T15:53:46;18.60;99.90
17988;DHT22;9119;50.932;5.342;2022-10-16T15:56:12;18.60;99.90
17988;DHT22;9119;50.932;5.342;2022-10-16T15:58:38;18.50;99.90
17988;DHT22;9119;50.932;5.342;2022-10-16T16:01:07;18.50;99.90
17988;DHT22;9119;50.932;5.342;2022-10-16T16:03:37;18.50;99.90
17988;DHT22;9119;50.932;5.342;2022-10-16T16:06:05;18.50;99.90
17988;DHT22;9119;50.932;5.342;2022-10-16T16:08:32;18.40;99.90
17988;DHT22;9119;50.932;5.342;2022-10-16T16:11:03;18.40;99.90
17988;DHT22;9119;50.932;5.342;2022-10-16T16:13:29;18.40;99.90
17988;DHT22;9119;50.932;5.342;2022-10-16T16:15:55;18.30;99.90
17988;DHT22;9119;50.932;5.342;2022-10-16T16:18:20;18.30;99.90
17988;DHT22;9119;50.932;5.342;2022-10-16T16:20:46;18.40;99.90
17988;DHT22;9119;50.932;5.342;2022-10-16T16:23:12;18.20;99.90
17988;DHT22;9119;50.932;5.342;2022-10-16T16:25:38;18.20;99.90
17988;DHT22;9119;50.932;5.342;2022-10-16T16:28:03;18.20;99.90
17988;DHT22;9119;50.932;5.342;2022-10-16T16:30:29;18.20;99.90
17988;DHT22;9119;50.932;5.342;2022-10-16T16:32:55;18.10;99.90
17988;DHT22;9119;50.932;5.342;2022-10-16T16:35:23;18.10;99.90
17988;DHT22;9119;50.932;5.342;2022-10-16T16:37:49;18.10;99.90
17988;DHT22;9119;50.932;5.342;2022-10-16T16:40:15;18.00;99.90
17988;DHT22;9119;50.932;5.342;2022-10-16T16:42:40;18.00;99.90
17988;DHT22;9119;50.932;5.342;2022-10-16T16:45:06;18.00;99.90
17988;DHT22;9119;50.932;5.342;2022-10-16T16:47:32;18.00;99.90
17988;DHT22;9119;50.932;5.342;2022-10-16T16:49:58;17.90;99.90
17988;DHT22;9119;50.932;5.342;2022-10-16T16:52:24;17.90;99.90
17988;DHT22;9119;50.932;5.342;2022-10-16T16:54:50;17.80;99.90
17988;DHT22;9119;50.932;5.342;2022-10-16T16:57:19;17.80;99.90
17988;DHT22;9119;50.932;5.342;2022-10-16T16:59:45;17.80;99.90
17988;DHT22;9119;50.932;5.342;2022-10-16T17:02:11;17.70;99.90
17988;DHT22;9119;50.932;5.342;2022-10-16T17:04:36;17.80;99.90
17988;DHT22;9119;50.932;5.342;2022-10-16T17:07:02;17.80;99.90
17988;DHT22;9119;50.932;5.342;2022-10-16T17:09:27;17.80;99.90
17988;DHT22;9119;50.932;5.342;2022-10-16T17:11:53;17.70;99.90
17988;DHT22;9119;50.932;5.342;2022-10-16T17:14:19;17.70;99.90
17988;DHT22;9119;50.932;5.342;2022-10-16T17:16:44;17.60;99.90
17988;DHT22;9119;50.932;5.342;2022-10-16T17:19:12;17.50;99.90
17988;DHT22;9119;50.932;5.342;2022-10-16T17:21:39;17.50;99.90
17988;DHT22;9119;50.932;5.342;2022-10-16T17:24:05;17.60;99.90
17988;DHT22;9119;50.932;5.342;2022-10-16T17:26:32;17.40;99.90
17988;DHT22;9119;50.932;5.342;2022-10-16T17:28:59;17.40;99.90
17988;DHT22;9119;50.932;5.342;2022-10-16T17:31:31;17.40;99.90
17988;DHT22;9119;50.932;5.342;2022-10-16T17:34:01;17.40;99.90
17988;DHT22;9119;50.932;5.342;2022-10-16T17:36:27;17.30;99.90
17988;DHT22;9119;50.932;5.342;2022-10-16T17:38:58;17.30;99.90
17988;DHT22;9119;50.932;5.342;2022-10-16T17:41:26;17.30;99.90
17988;DHT22;9119;50.932;5.342;2022-10-16T17:43:51;17.40;99.90
17988;DHT22;9119;50.932;5.342;2022-10-16T17:46:19;17.30;99.90
17988;DHT22;9119;50.932;5.342;2022-10-16T17:48:51;17.40;99.90
17988;DHT22;9119;50.932;5.342;2022-10-16T17:51:21;17.40;99.90
17988;DHT22;9119;50.932;5.342;2022-10-16T17:53:52;17.50;99.90